Time;durP1;ratioP1;P1;durP2;ratioP2;P2;SDS_P1;SDS_P2;PMS_P1;PMS_P2;Temp;Humidity;BMP_temperature;BMP_pressure;BME280_temperature;BME280_humidity;BME280_pressure;Samples;Min_cycle;Max_cycle;Signal;HPM_P1;HPM_P2
2021/07/28 00:00:33;;;;;;;5.60;4.20;;;21.90;67.00;;;;;;3561314;40;20030;-65
2021/07/28 00:03:00;;;;;;;4.72;3.90;;;21.90;67.40;;;;;;3561117;40;20047;-65
2021/07/28 00:05:26;;;;;;;5.15;4.55;;;21.80;67.70;;;;;;3561676;40;20123;-65
2021/07/28 00:07:52;;;;;;;4.65;4.15;;;21.80;67.90;;;;;;3559561;40;20498;-64
2021/07/28 00:10:18;;;;;;;5.35;4.35;;;21.80;68.00;;;;;;3561418;40;20032;-67
2021/07/28 00:12:45;;;;;;;4.78;4.13;;;21.70;67.70;;;;;;3561123;40;20033;-65
2021/07/28 00:15:11;;;;;;;5.13;4.20;;;21.70;67.90;;;;;;3560010;40;20025;-67
2021/07/28 00:17:43;;;;;;;5.05;3.70;;;21.70;67.70;;;;;;3560979;40;20045;-68
2021/07/28 00:20:16;;;;;;;6.88;4.15;;;21.60;68.00;;;;;;3560904;40;20594;-68
2021/07/28 00:25:26;;;;;;;6.97;3.83;;;21.50;68.40;;;;;;3560592;40;20045;-65
2021/07/28 00:27:52;;;;;;;6.45;3.92;;;21.40;68.90;;;;;;3560468;40;20026;-65
2021/07/28 00:30:19;;;;;;;5.93;4.07;;;21.40;69.40;;;;;;3560473;40;20127;-65
2021/07/28 00:32:44;;;;;;;7.47;4.18;;;21.30;70.30;;;;;;3559734;40;20377;-67
2021/07/28 00:35:11;;;;;;;5.72;3.90;;;21.20;69.80;;;;;;3560550;40;20025;-65
2021/07/28 00:37:36;;;;;;;5.13;3.72;;;21.20;70.00;;;;;;3560243;40;20686;-68
2021/07/28 00:40:03;;;;;;;6.82;4.05;;;21.10;70.30;;;;;;3560585;40;20030;-69
2021/07/28 00:42:29;;;;;;;5.55;4.47;;;21.10;70.30;;;;;;3558847;40;20022;-67
2021/07/28 00:44:55;;;;;;;5.07;4.00;;;21.00;70.50;;;;;;3560536;40;20134;-67
2021/07/28 00:47:21;;;;;;;4.95;4.03;;;21.10;70.70;;;;;;3559793;40;20127;-68
2021/07/28 00:49:48;;;;;;;5.25;3.80;;;21.00;70.90;;;;;;3560537;40;20022;-67
2021/07/28 00:52:13;;;;;;;4.65;4.00;;;21.00;71.00;;;;;;3560119;40;20131;-67
2021/07/28 00:54:39;;;;;;;5.68;4.10;;;21.00;71.10;;;;;;3560167;40;20049;-67
2021/07/28 00:57:09;;;;;;;4.57;4.07;;;21.00;70.90;;;;;;3560248;40;20037;-67
2021/07/28 00:59:35;;;;;;;5.45;3.70;;;21.00;71.00;;;;;;3558463;40;20131;-67
2021/07/28 01:02:01;;;;;;;5.30;4.45;;;21.00;70.90;;;;;;3559215;40;20089;-67
2021/07/28 01:04:27;;;;;;;5.15;3.95;;;20.90;71.00;;;;;;3559608;40;20041;-67
2021/07/28 01:06:52;;;;;;;4.57;4.10;;;20.90;71.10;;;;;;3560142;40;20656;-67
2021/07/28 01:09:18;;;;;;;6.15;3.88;;;20.80;71.40;;;;;;3558971;40;20041;-68
2021/07/28 01:11:44;;;;;;;6.03;4.40;;;20.80;71.50;;;;;;3558247;40;20075;-67
2021/07/28 01:14:10;;;;;;;5.30;4.15;;;20.80;71.80;;;;;;3560536;40;20382;-64
2021/07/28 01:16:40;;;;;;;5.70;4.18;;;20.80;71.70;;;;;;3559774;40;20065;-67
2021/07/28 01:19:10;;;;;;;7.35;4.28;;;20.80;71.80;;;;;;3552901;40;20044;-67
2021/07/28 01:21:36;;;;;;;5.40;3.92;;;20.70;71.80;;;;;;3560794;40;20127;-66
2021/07/28 01:24:03;;;;;;;4.30;3.85;;;20.70;71.90;;;;;;3561917;40;20130;-66
2021/07/28 01:26:29;;;;;;;5.53;4.13;;;20.60;72.40;;;;;;3561318;40;20033;-64
2021/07/28 01:28:56;;;;;;;4.32;3.67;;;20.70;72.10;;;;;;3561509;40;20025;-63
2021/07/28 01:31:22;;;;;;;4.70;4.20;;;20.60;72.20;;;;;;3560857;40;20389;-63
2021/07/28 01:33:48;;;;;;;4.53;4.05;;;20.70;72.20;;;;;;3561551;40;20032;-64
2021/07/28 01:36:16;;;;;;;6.30;3.78;;;20.70;72.30;;;;;;3560148;40;20111;-64
2021/07/28 01:38:42;;;;;;;4.45;3.85;;;20.70;72.40;;;;;;3561318;40;20034;-67
2021/07/28 01:41:09;;;;;;;5.38;4.47;;;20.70;72.40;;;;;;3560349;40;20029;-66
2021/07/28 01:43:35;;;;;;;5.25;4.20;;;20.70;72.30;;;;;;3561697;40;20073;-67
2021/07/28 01:46:02;;;;;;;4.22;3.58;;;20.70;72.30;;;;;;3561350;40;20176;-67
2021/07/28 01:48:28;;;;;;;6.22;4.15;;;20.70;72.40;;;;;;3561123;40;20082;-66
2021/07/28 01:50:54;;;;;;;4.60;3.75;;;20.70;72.40;;;;;;3560234;40;20029;-67
2021/07/28 01:53:21;;;;;;;5.45;3.88;;;20.70;72.40;;;;;;3560293;40;20111;-64
2021/07/28 01:55:46;;;;;;;4.00;3.60;;;20.70;72.70;;;;;;3560359;40;20038;-64
2021/07/28 01:58:12;;;;;;;4.95;3.80;;;20.70;72.90;;;;;;3560211;40;20409;-63
2021/07/28 02:00:39;;;;;;;4.57;3.38;;;20.70;72.90;;;;;;3560221;40;20095;-65
2021/07/28 02:03:05;;;;;;;4.22;3.58;;;20.60;72.70;;;;;;3558812;40;20463;-64
2021/07/28 02:05:37;;;;;;;5.65;4.03;;;20.70;72.80;;;;;;3561040;40;20130;-64
2021/07/28 02:08:06;;;;;;;4.55;4.07;;;20.60;72.50;;;;;;3560359;40;20050;-64
2021/07/28 02:10:37;;;;;;;5.22;3.95;;;20.70;72.50;;;;;;3559932;40;20410;-65
2021/07/28 02:13:03;;;;;;;6.32;3.58;;;20.70;72.80;;;;;;3560210;40;20026;-64
2021/07/28 02:15:30;;;;;;;4.65;3.65;;;20.70;73.00;;;;;;3559285;40;20036;-64
2021/07/28 02:17:56;;;;;;;4.88;3.80;;;20.70;73.00;;;;;;3560599;40;20035;-65
2021/07/28 02:20:23;;;;;;;4.68;3.83;;;20.70;73.00;;;;;;3560110;40;20037;-64
2021/07/28 02:22:49;;;;;;;4.63;4.10;;;20.60;73.20;;;;;;3560849;40;20061;-65
2021/07/28 02:25:16;;;;;;;6.47;4.05;;;20.50;73.40;;;;;;3561231;40;20127;-65
2021/07/28 02:27:43;;;;;;;5.25;4.22;;;20.50;73.70;;;;;;3560302;40;20033;-64
2021/07/28 02:30:11;;;;;;;5.38;4.03;;;20.40;73.20;;;;;;3560585;40;20030;-64
2021/07/28 02:32:38;;;;;;;5.18;4.05;;;20.40;73.80;;;;;;3559476;40;20037;-67
2021/07/28 02:35:05;;;;;;;7.25;4.43;;;20.30;73.70;;;;;;3560875;40;20065;-67
2021/07/28 02:37:31;;;;;;;5.90;4.28;;;20.30;73.90;;;;;;3559208;40;20029;-68
2021/07/28 02:39:57;;;;;;;6.63;4.25;;;20.30;74.20;;;;;;3560646;40;20037;-66
2021/07/28 02:42:23;;;;;;;5.43;3.95;;;20.40;74.40;;;;;;3560986;40;20081;-67
2021/07/28 02:44:48;;;;;;;5.90;4.22;;;20.40;74.50;;;;;;3559130;40;20111;-66
2021/07/28 02:47:14;;;;;;;5.63;4.35;;;20.40;74.20;;;;;;3561034;40;20028;-67
2021/07/28 02:49:40;;;;;;;5.07;4.07;;;20.40;73.80;;;;;;3560771;40;20699;-67
2021/07/28 02:52:06;;;;;;;5.68;3.97;;;20.40;74.00;;;;;;3561502;40;20462;-67
2021/07/28 02:54:31;;;;;;;5.22;4.07;;;20.50;74.00;;;;;;3561369;40;20045;-67
2021/07/28 02:56:57;;;;;;;5.95;4.03;;;20.50;73.80;;;;;;3560673;40;20118;-66
2021/07/28 02:59:23;;;;;;;5.03;4.03;;;20.40;73.80;;;;;;3559538;40;20021;-66
2021/07/28 03:01:50;;;;;;;4.38;3.97;;;20.40;74.00;;;;;;3560746;40;20410;-67
2021/07/28 03:04:16;;;;;;;4.45;4.05;;;20.50;74.10;;;;;;3561178;40;20046;-67
2021/07/28 03:06:42;;;;;;;4.50;4.10;;;20.50;74.40;;;;;;3561082;40;20030;-67
2021/07/28 03:09:07;;;;;;;4.47;3.83;;;20.40;74.70;;;;;;3561035;40;20076;-67
2021/07/28 03:11:33;;;;;;;5.15;4.10;;;20.40;75.20;;;;;;3559712;40;20128;-68
2021/07/28 03:13:59;;;;;;;6.13;4.00;;;20.40;75.80;;;;;;3558857;40;20030;-68
2021/07/28 03:16:25;;;;;;;5.78;4.22;;;20.40;75.80;;;;;;3559384;40;20042;-68
2021/07/28 03:18:51;;;;;;;9.05;4.47;;;20.40;75.60;;;;;;3560064;40;20079;-67
2021/07/28 03:21:17;;;;;;;5.30;4.63;;;20.50;75.40;;;;;;3560559;40;20327;-68
2021/07/28 03:23:43;;;;;;;6.25;4.65;;;20.50;75.80;;;;;;3560714;40;20049;-68
2021/07/28 03:26:08;;;;;;;5.20;4.50;;;20.50;76.50;;;;;;3559849;40;20056;-67
2021/07/28 03:28:34;;;;;;;5.95;4.32;;;20.40;77.30;;;;;;3560732;40;20356;-67
2021/07/28 03:31:00;;;;;;;5.03;4.35;;;20.40;77.80;;;;;;3559474;40;20034;-67
2021/07/28 03:33:26;;;;;;;4.85;4.22;;;20.40;78.10;;;;;;3559495;40;20123;-67
2021/07/28 03:35:51;;;;;;;6.55;4.90;;;20.30;78.50;;;;;;3560190;40;20116;-67
2021/07/28 03:38:17;;;;;;;5.78;4.75;;;20.40;78.20;;;;;;3558578;40;20034;-67
2021/07/28 03:40:43;;;;;;;5.05;4.55;;;20.30;78.50;;;;;;3560237;40;20292;-67
2021/07/28 03:43:09;;;;;;;5.82;4.75;;;20.30;78.60;;;;;;3558441;40;20461;-67
2021/07/28 03:45:35;;;;;;;5.75;4.82;;;20.30;78.50;;;;;;3560313;40;20049;-67
2021/07/28 03:48:01;;;;;;;6.47;4.38;;;20.30;78.90;;;;;;3559844;40;20033;-68
2021/07/28 03:50:27;;;;;;;6.03;4.80;;;20.30;79.30;;;;;;3559873;40;20084;-64
2021/07/28 03:52:56;;;;;;;6.72;5.35;;;20.30;79.80;;;;;;3559745;40;20037;-65
2021/07/28 03:55:23;;;;;;;6.07;5.00;;;20.30;80.30;;;;;;3556636;40;20513;-64
2021/07/28 03:57:48;;;;;;;5.70;4.72;;;20.30;80.30;;;;;;3558195;40;20085;-64
2021/07/28 04:00:15;;;;;;;8.95;4.90;;;20.30;80.40;;;;;;3558340;40;20419;-64
2021/07/28 04:02:40;;;;;;;9.10;4.95;;;20.30;80.10;;;;;;3558433;40;20650;-65
2021/07/28 04:05:07;;;;;;;6.10;5.15;;;20.30;79.80;;;;;;3559537;40;20029;-65
2021/07/28 04:07:32;;;;;;;8.30;5.07;;;20.30;80.20;;;;;;3559871;40;20391;-67
2021/07/28 04:09:58;;;;;;;8.55;4.38;;;20.30;81.00;;;;;;3560287;40;20087;-67
2021/07/28 04:12:24;;;;;;;7.40;5.55;;;20.30;81.60;;;;;;3560247;40;20041;-67
2021/07/28 04:14:50;;;;;;;6.85;5.15;;;20.30;81.20;;;;;;3559264;40;20497;-67
2021/07/28 04:17:15;;;;;;;7.03;5.50;;;20.30;81.30;;;;;;3559918;40;20708;-68
2021/07/28 04:19:43;;;;;;;5.93;5.30;;;20.20;81.10;;;;;;3558787;40;20025;-67
2021/07/28 04:22:09;;;;;;;7.07;4.80;;;20.20;80.80;;;;;;3559993;40;20142;-67
2021/07/28 04:24:35;;;;;;;5.72;4.70;;;20.20;80.20;;;;;;3560501;40;20423;-68
2021/07/28 04:27:01;;;;;;;7.07;5.28;;;20.20;80.30;;;;;;3560263;40;20033;-67
2021/07/28 04:29:26;;;;;;;7.05;5.07;;;20.20;80.50;;;;;;3559340;40;20119;-68
2021/07/28 04:31:52;;;;;;;6.32;5.20;;;20.30;81.10;;;;;;3559536;40;20029;-67
2021/07/28 04:34:18;;;;;;;5.78;4.70;;;20.30;81.00;;;;;;3560202;40;20052;-68
2021/07/28 04:36:43;;;;;;;6.78;5.05;;;20.30;81.10;;;;;;3560702;40;20659;-67
2021/07/28 04:39:09;;;;;;;6.63;5.10;;;20.30;80.90;;;;;;3560653;40;20038;-68
2021/07/28 04:41:35;;;;;;;7.05;5.47;;;20.40;81.40;;;;;;3560501;40;20146;-67
2021/07/28 04:44:01;;;;;;;6.50;5.47;;;20.30;80.40;;;;;;3560992;40;20319;-67
2021/07/28 04:46:26;;;;;;;6.82;5.50;;;20.30;79.60;;;;;;3560456;40;20362;-67
2021/07/28 04:48:54;;;;;;;7.50;5.25;;;20.30;79.80;;;;;;3559648;40;20030;-67
2021/07/28 04:51:19;;;;;;;6.68;5.47;;;20.40;79.80;;;;;;3549620;40;20430;-67
2021/07/28 04:53:45;;;;;;;6.00;5.20;;;20.40;80.00;;;;;;3560307;40;20044;-65
2021/07/28 04:56:12;;;;;;;7.68;5.45;;;20.40;80.30;;;;;;3561691;40;20045;-65
2021/07/28 04:58:37;;;;;;;6.53;5.47;;;20.40;80.10;;;;;;3559468;40;20077;-66
2021/07/28 05:01:03;;;;;;;9.05;5.68;;;20.40;79.80;;;;;;3561466;40;20040;-64
2021/07/28 05:03:29;;;;;;;5.90;5.30;;;20.40;79.30;;;;;;3561255;40;20115;-65
2021/07/28 05:05:54;;;;;;;8.27;5.65;;;20.50;79.30;;;;;;3561021;40;20703;-66
2021/07/28 05:08:20;;;;;;;6.15;5.55;;;20.50;79.30;;;;;;3560275;40;20080;-65
2021/07/28 05:10:49;;;;;;;8.15;5.85;;;20.60;79.00;;;;;;3559530;40;20033;-65
2021/07/28 05:13:15;;;;;;;6.80;5.70;;;20.50;79.00;;;;;;3561440;40;20041;-65
2021/07/28 05:15:41;;;;;;;6.50;5.88;;;20.60;79.00;;;;;;3560989;40;20049;-65
2021/07/28 05:18:06;;;;;;;8.35;5.53;;;20.60;78.90;;;;;;3561250;40;20044;-64
2021/07/28 05:20:32;;;;;;;8.50;5.63;;;20.60;78.20;;;;;;3560519;40;20288;-65
2021/07/28 05:22:58;;;;;;;7.47;5.90;;;20.60;78.10;;;;;;3561280;40;20037;-64
2021/07/28 05:25:24;;;;;;;7.28;6.22;;;20.60;78.40;;;;;;3561261;40;20038;-64
2021/07/28 05:27:50;;;;;;;7.45;5.93;;;20.70;79.00;;;;;;3551146;40;20041;-64
2021/07/28 05:30:16;;;;;;;8.10;5.85;;;20.70;78.70;;;;;;3560977;40;20103;-64
2021/07/28 05:32:42;;;;;;;8.43;6.13;;;20.80;78.40;;;;;;3559448;40;20049;-64
2021/07/28 05:35:08;;;;;;;7.72;5.90;;;20.80;78.40;;;;;;3560760;40;20098;-64
2021/07/28 05:37:34;;;;;;;6.93;6.10;;;20.80;78.60;;;;;;3561133;40;20030;-65
2021/07/28 05:39:59;;;;;;;6.63;5.95;;;20.80;78.90;;;;;;3562205;40;20700;-67
2021/07/28 05:42:25;;;;;;;9.25;5.60;;;20.80;78.30;;;;;;3560985;40;20017;-67
2021/07/28 05:44:51;;;;;;;10.18;6.07;;;20.90;78.40;;;;;;3561084;40;20040;-68
2021/07/28 05:47:16;;;;;;;7.30;5.32;;;20.90;78.50;;;;;;3561239;40;20038;-68
2021/07/28 05:49:42;;;;;;;8.68;6.03;;;20.90;78.40;;;;;;3551340;40;20561;-67
2021/07/28 05:52:08;;;;;;;7.05;6.35;;;21.00;78.60;;;;;;3561272;40;20093;-68
2021/07/28 05:54:34;;;;;;;8.40;6.65;;;21.00;78.80;;;;;;3561690;40;20026;-66
2021/07/28 05:57:00;;;;;;;6.78;6.15;;;21.10;77.90;;;;;;3560781;40;20726;-67
2021/07/28 05:59:27;;;;;;;9.07;6.10;;;21.20;78.50;;;;;;3561309;40;20760;-67
2021/07/28 06:01:52;;;;;;;6.88;6.00;;;21.30;77.30;;;;;;3560901;40;20033;-68
2021/07/28 06:04:18;;;;;;;7.43;5.38;;;21.40;75.90;;;;;;3560236;40;20101;-67
2021/07/28 06:06:44;;;;;;;7.57;6.07;;;21.50;75.00;;;;;;3560790;40;20081;-67
2021/07/28 06:09:09;;;;;;;7.35;6.25;;;21.60;74.80;;;;;;3561322;40;20103;-67
2021/07/28 06:11:35;;;;;;;6.72;5.80;;;21.70;74.40;;;;;;3560811;40;20735;-67
2021/07/28 06:14:01;;;;;;;7.60;5.82;;;21.70;74.30;;;;;;3559805;40;20065;-67
2021/07/28 06:16:26;;;;;;;6.47;5.75;;;21.70;74.30;;;;;;3560974;40;20029;-67
2021/07/28 06:18:52;;;;;;;7.35;5.80;;;21.80;74.20;;;;;;3559527;40;20311;-66
2021/07/28 06:21:18;;;;;;;8.73;5.60;;;21.80;74.20;;;;;;3559770;40;20056;-67
2021/07/28 06:23:44;;;;;;;10.70;5.85;;;21.90;73.70;;;;;;3560530;40;20445;-67
2021/07/28 06:26:09;;;;;;;10.27;5.60;;;21.90;72.20;;;;;;3559795;40;20104;-67
2021/07/28 06:28:35;;;;;;;6.72;5.32;;;21.90;71.60;;;;;;3560298;40;20094;-67
2021/07/28 06:31:00;;;;;;;5.90;5.10;;;21.90;71.10;;;;;;3559748;40;20777;-66
2021/07/28 06:33:26;;;;;;;7.05;5.05;;;21.80;69.80;;;;;;3558845;40;20578;-67
2021/07/28 06:35:53;;;;;;;5.00;4.53;;;21.80;69.30;;;;;;3560089;40;20139;-67
2021/07/28 06:38:19;;;;;;;6.75;5.20;;;21.80;68.80;;;;;;3558915;40;20075;-67
2021/07/28 06:40:46;;;;;;;6.60;5.13;;;21.70;69.20;;;;;;3559959;40;20030;-67
2021/07/28 06:43:13;;;;;;;5.68;5.07;;;21.70;69.60;;;;;;3560066;40;20142;-67
2021/07/28 06:45:38;;;;;;;6.32;4.80;;;21.70;69.70;;;;;;3560636;40;20492;-67
2021/07/28 06:48:04;;;;;;;6.68;4.78;;;21.70;70.20;;;;;;3559718;40;20045;-66
2021/07/28 06:50:30;;;;;;;9.50;4.95;;;21.80;70.50;;;;;;3559390;40;20025;-67
2021/07/28 06:52:56;;;;;;;8.90;5.07;;;21.80;71.00;;;;;;3560047;40;20422;-66
2021/07/28 06:55:22;;;;;;;8.27;5.60;;;21.80;70.70;;;;;;3559967;40;20057;-66
2021/07/28 06:57:47;;;;;;;6.95;5.60;;;21.80;70.30;;;;;;3560512;40;20663;-67
2021/07/28 07:00:14;;;;;;;7.63;5.50;;;21.80;70.80;;;;;;3560401;40;20802;-67
2021/07/28 07:02:39;;;;;;;8.38;6.15;;;21.80;71.20;;;;;;3559724;40;20684;-66
2021/07/28 07:05:06;;;;;;;8.15;5.75;;;21.80;71.00;;;;;;3560828;40;20041;-67
2021/07/28 07:07:32;;;;;;;6.03;5.20;;;21.70;71.40;;;;;;3560501;40;20032;-66
2021/07/28 07:09:58;;;;;;;8.30;6.20;;;21.80;71.70;;;;;;3558982;40;20033;-68
2021/07/28 07:12:25;;;;;;;8.27;5.70;;;21.80;72.40;;;;;;3560651;40;20041;-67
2021/07/28 07:14:52;;;;;;;6.07;4.78;;;21.80;72.80;;;;;;3561176;40;20154;-67
2021/07/28 07:17:18;;;;;;;6.43;5.15;;;21.90;72.80;;;;;;3559304;40;20123;-68
2021/07/28 07:19:44;;;;;;;8.55;4.97;;;21.90;72.10;;;;;;3559511;40;20908;-69
2021/07/28 07:22:09;;;;;;;5.43;4.90;;;21.90;72.20;;;;;;3560687;40;20046;-68
2021/07/28 07:24:35;;;;;;;6.68;5.03;;;22.00;72.20;;;;;;3559748;40;20696;-67
2021/07/28 07:27:01;;;;;;;6.82;5.30;;;22.00;72.20;;;;;;3559829;40;20026;-66
2021/07/28 07:29:27;;;;;;;6.10;4.78;;;22.10;72.00;;;;;;3559955;40;20036;-66
2021/07/28 07:31:53;;;;;;;5.25;4.75;;;22.20;71.60;;;;;;3559656;40;20033;-66
2021/07/28 07:34:20;;;;;;;8.05;4.95;;;22.30;71.20;;;;;;3560486;40;20339;-66
2021/07/28 07:36:45;;;;;;;6.05;4.93;;;22.40;70.20;;;;;;3558806;40;20026;-66
2021/07/28 07:39:11;;;;;;;6.30;5.07;;;22.50;70.80;;;;;;3557383;40;20100;-66
2021/07/28 07:41:37;;;;;;;6.30;5.55;;;22.40;71.50;;;;;;3559941;40;20029;-67
2021/07/28 07:44:03;;;;;;;5.05;4.55;;;22.50;71.70;;;;;;3558903;40;20021;-68
2021/07/28 07:46:29;;;;;;;7.10;4.47;;;22.40;71.00;;;;;;3563462;40;20042;-67
2021/07/28 07:48:56;;;;;;;5.85;5.25;;;22.40;71.40;;;;;;3550154;40;20380;-67
2021/07/28 07:51:23;;;;;;;5.90;4.50;;;22.40;71.40;;;;;;3558991;40;20744;-67
2021/07/28 07:53:48;;;;;;;5.38;4.40;;;22.50;71.10;;;;;;3558267;40;20040;-67
2021/07/28 07:56:14;;;;;;;5.85;4.68;;;22.60;71.00;;;;;;3550341;40;20049;-67
2021/07/28 07:58:40;;;;;;;5.55;4.63;;;22.80;70.00;;;;;;3559195;40;20030;-71
2021/07/28 08:01:09;;;;;;;4.80;4.35;;;22.90;69.50;;;;;;3559178;40;20037;-68
2021/07/28 08:03:36;;;;;;;6.05;4.68;;;23.00;69.30;;;;;;3566498;40;20065;-68
2021/07/28 08:06:02;;;;;;;5.65;4.55;;;23.00;69.40;;;;;;3557595;40;20038;-66
2021/07/28 08:08:28;;;;;;;6.30;4.40;;;23.20;69.20;;;;;;3559444;40;20026;-66
2021/07/28 08:10:57;;;;;;;6.60;4.68;;;23.20;68.20;;;;;;3558941;40;20032;-66
2021/07/28 08:13:23;;;;;;;5.80;5.20;;;23.20;67.90;;;;;;3559447;40;20089;-66
2021/07/28 08:15:49;;;;;;;4.75;4.18;;;23.30;68.00;;;;;;3559433;40;20029;-66
2021/07/28 08:18:15;;;;;;;4.88;4.32;;;23.40;68.00;;;;;;3558534;40;20786;-72
2021/07/28 08:20:41;;;;;;;5.38;4.03;;;23.60;67.30;;;;;;3557856;40;20052;-67
2021/07/28 08:23:07;;;;;;;8.07;4.03;;;23.70;66.20;;;;;;3557086;40;20026;-67
2021/07/28 08:25:33;;;;;;;4.50;3.80;;;23.70;65.30;;;;;;3558931;40;20048;-68
2021/07/28 08:27:59;;;;;;;4.90;3.90;;;23.70;65.10;;;;;;3559149;40;20505;-67
2021/07/28 08:30:25;;;;;;;8.57;3.90;;;23.70;65.00;;;;;;3559627;40;20033;-66
2021/07/28 08:32:50;;;;;;;4.57;3.60;;;23.70;65.50;;;;;;3561468;40;20045;-66
2021/07/28 08:35:16;;;;;;;4.55;3.55;;;23.70;65.40;;;;;;3560441;40;20029;-64
2021/07/28 08:37:42;;;;;;;4.63;3.38;;;23.80;65.50;;;;;;3560717;40;20084;-64
2021/07/28 08:40:14;;;;;;;5.75;4.03;;;23.80;66.30;;;;;;3560674;40;20052;-65
2021/07/28 08:42:44;;;;;;;5.35;4.15;;;23.80;65.60;;;;;;3560002;40;20038;-64
2021/07/28 08:45:12;;;;;;;5.10;3.97;;;23.90;66.10;;;;;;3559979;40;20040;-64
2021/07/28 08:47:39;;;;;;;4.70;4.20;;;24.00;66.30;;;;;;3560205;40;20870;-64
2021/07/28 08:50:10;;;;;;;4.18;3.63;;;24.20;63.90;;;;;;3561051;40;20037;-65
2021/07/28 08:52:38;;;;;;;5.72;4.00;;;24.20;64.10;;;;;;3561172;40;20025;-65
2021/07/28 08:55:05;;;;;;;5.80;3.55;;;24.30;64.50;;;;;;3560496;40;20041;-65
2021/07/28 08:57:34;;;;;;;5.40;3.80;;;24.40;63.60;;;;;;3559780;40;20041;-64
2021/07/28 09:00:01;;;;;;;7.03;3.95;;;24.40;62.40;;;;;;3560954;40;20215;-64
2021/07/28 09:02:28;;;;;;;6.82;4.07;;;24.40;63.90;;;;;;3561042;40;20399;-64
2021/07/28 09:04:54;;;;;;;4.03;3.63;;;24.30;64.00;;;;;;3561464;40;20030;-64
2021/07/28 09:07:23;;;;;;;8.90;3.40;;;24.40;63.70;;;;;;3561693;40;20044;-64
2021/07/28 09:09:53;;;;;;;6.18;3.72;;;24.60;62.20;;;;;;3561180;40;20720;-64
2021/07/28 09:12:20;;;;;;;7.25;5.60;;;24.60;61.20;;;;;;3560826;40;20041;-65
2021/07/28 09:14:57;;;;;;;5.10;4.22;;;24.60;62.00;;;;;;3560847;40;20057;-66
2021/07/28 09:17:27;;;;;;;6.32;5.20;;;24.70;61.60;;;;;;3567878;40;20037;-65
2021/07/28 09:19:54;;;;;;;7.07;5.25;;;24.80;61.90;;;;;;3559294;40;20171;-66
2021/07/28 09:22:21;;;;;;;8.73;5.30;;;24.90;61.70;;;;;;3559676;40;20083;-66
2021/07/28 09:25:10;;;;;;;5.95;3.85;;;25.00;61.10;;;;;;3559834;40;20033;-65
2021/07/28 09:27:41;;;;;;;7.38;4.20;;;25.10;59.70;;;;;;3556699;40;20033;-66
2021/07/28 09:30:08;;;;;;;4.32;3.30;;;25.20;60.90;;;;;;3559857;40;20496;-65
2021/07/28 09:32:35;;;;;;;4.05;3.58;;;25.30;59.00;;;;;;3559953;40;20053;-65
2021/07/28 09:35:01;;;;;;;4.72;3.17;;;25.30;59.60;;;;;;3561679;40;20025;-66
2021/07/28 09:37:28;;;;;;;4.28;3.22;;;25.40;57.20;;;;;;3560534;40;20156;-66
2021/07/28 09:39:54;;;;;;;4.75;3.20;;;25.50;58.50;;;;;;3564273;40;20037;-66
2021/07/28 09:42:26;;;;;;;4.05;3.63;;;25.60;58.10;;;;;;3561003;40;20037;-66
2021/07/28 09:44:57;;;;;;;4.18;3.00;;;25.70;58.80;;;;;;3560781;40;20032;-65
2021/07/28 09:47:37;;;;;;;4.00;3.17;;;25.80;57.90;;;;;;3560967;40;20037;-66
2021/07/28 09:50:03;;;;;;;4.47;3.75;;;25.80;56.70;;;;;;3560872;40;20097;-66
2021/07/28 09:52:34;;;;;;;3.95;3.40;;;25.90;57.10;;;;;;3561440;40;20402;-65
2021/07/28 09:55:21;;;;;;;5.35;3.95;;;25.90;57.40;;;;;;3560358;40;20040;-66
2021/07/28 09:57:55;;;;;;;4.93;3.72;;;25.90;56.60;;;;;;3559855;40;20029;-67
2021/07/28 10:00:22;;;;;;;4.88;4.10;;;25.90;57.10;;;;;;3559784;40;20044;-65
2021/07/28 10:02:50;;;;;;;5.82;3.95;;;25.90;57.90;;;;;;3560752;40;20021;-65
2021/07/28 10:05:19;;;;;;;4.72;3.97;;;25.90;57.80;;;;;;3560067;40;20042;-65
2021/07/28 10:07:48;;;;;;;6.03;4.15;;;25.90;58.50;;;;;;3559683;40;20038;-65
2021/07/28 10:10:17;;;;;;;5.38;4.03;;;25.90;58.30;;;;;;3559894;40;20041;-65
2021/07/28 10:12:44;;;;;;;4.10;3.70;;;25.90;57.30;;;;;;3561748;40;20033;-65
2021/07/28 10:15:10;;;;;;;4.70;3.85;;;25.90;56.90;;;;;;3560531;40;20310;-66
2021/07/28 10:17:42;;;;;;;7.13;3.83;;;25.90;55.90;;;;;;3559534;40;20134;-65
2021/07/28 10:20:09;;;;;;;8.70;3.60;;;25.90;55.00;;;;;;3560694;40;20081;-66
2021/07/28 10:22:39;;;;;;;6.18;3.78;;;25.80;54.00;;;;;;3561979;40;20033;-68
2021/07/28 10:25:10;;;;;;;4.13;2.88;;;25.70;53.50;;;;;;3560058;40;20318;-65
2021/07/28 10:27:39;;;;;;;5.30;4.07;;;25.70;53.00;;;;;;3556841;40;20030;-65
2021/07/28 10:30:06;;;;;;;6.07;3.05;;;25.70;55.40;;;;;;3559443;40;20969;-65
2021/07/28 10:32:34;;;;;;;4.20;2.88;;;25.70;54.60;;;;;;3561628;40;20040;-65
2021/07/28 10:35:23;;;;;;;4.70;3.75;;;25.80;54.60;;;;;;3561380;40;20032;-65
2021/07/28 10:37:58;;;;;;;6.38;4.15;;;25.80;54.50;;;;;;3560825;40;20030;-64
2021/07/28 10:40:24;;;;;;;12.88;8.02;;;25.80;54.00;;;;;;3562947;40;20030;-64
2021/07/28 10:42:49;;;;;;;4.63;3.80;;;25.80;54.20;;;;;;3560580;40;20073;-64
2021/07/28 10:45:18;;;;;;;7.20;4.10;;;25.90;53.90;;;;;;3560878;40;20407;-62
2021/07/28 10:47:47;;;;;;;4.20;3.00;;;25.90;54.30;;;;;;3559754;40;20062;-65
2021/07/28 10:50:22;;;;;;;3.25;2.75;;;25.90;54.10;;;;;;3559618;40;20025;-64
2021/07/28 10:52:58;;;;;;;4.88;4.03;;;25.90;53.80;;;;;;3561985;40;20034;-65
2021/07/28 10:55:32;;;;;;;3.75;3.25;;;26.00;54.30;;;;;;3561968;40;20115;-65
2021/07/28 10:58:10;;;;;;;9.10;4.57;;;25.90;52.30;;;;;;3558331;40;20045;-65
2021/07/28 11:00:35;;;;;;;5.30;2.72;;;26.00;52.70;;;;;;3560856;40;20037;-67
2021/07/28 11:03:02;;;;;;;6.20;3.00;;;26.10;52.50;;;;;;3561881;40;20529;-68
2021/07/28 11:05:29;;;;;;;7.50;2.85;;;26.10;53.20;;;;;;3560978;40;20071;-69
2021/07/28 11:08:07;;;;;;;5.53;3.42;;;26.20;51.30;;;;;;3560617;40;20053;-69
2021/07/28 11:10:40;;;;;;;2.78;2.50;;;26.10;52.10;;;;;;3560259;40;20038;-69
2021/07/28 11:13:07;;;;;;;6.32;2.92;;;26.00;51.90;;;;;;3561712;40;20292;-68
2021/07/28 11:15:34;;;;;;;5.88;3.38;;;26.00;52.10;;;;;;3561045;40;20037;-67
2021/07/28 11:18:00;;;;;;;3.95;2.97;;;26.00;53.00;;;;;;3561144;40;20037;-66
2021/07/28 11:20:32;;;;;;;9.55;3.15;;;26.10;52.70;;;;;;3561824;40;20561;-67
2021/07/28 11:23:17;;;;;;;9.45;2.88;;;26.10;52.30;;;;;;3560226;40;20033;-69
2021/07/28 11:25:43;;;;;;;7.20;3.45;;;26.00;52.60;;;;;;3561573;40;20033;-66
2021/07/28 11:28:09;;;;;;;10.70;3.92;;;26.00;52.60;;;;;;3559906;40;20197;-69
2021/07/28 11:30:34;;;;;;;6.60;2.97;;;26.00;53.00;;;;;;3560179;40;20033;-66
2021/07/28 11:33:16;;;;;;;3.22;2.70;;;26.00;52.90;;;;;;3561232;40;20048;-65
2021/07/28 11:35:51;;;;;;;3.85;2.25;;;26.00;53.00;;;;;;3561061;40;20045;-66
2021/07/28 11:38:21;;;;;;;5.07;2.72;;;26.00;53.20;;;;;;3559888;40;20034;-64
2021/07/28 11:40:58;;;;;;;5.07;2.75;;;26.20;52.90;;;;;;3559223;40;20046;-65
2021/07/28 11:43:27;;;;;;;2.83;2.30;;;26.20;55.00;;;;;;3559750;40;20040;-66
2021/07/28 11:45:54;;;;;;;4.72;2.35;;;26.20;54.10;;;;;;3561109;40;20040;-66
2021/07/28 11:48:32;;;;;;;3.03;2.80;;;26.20;52.80;;;;;;3560357;40;20046;-67
2021/07/28 11:51:04;;;;;;;5.57;3.35;;;26.20;53.70;;;;;;3559267;40;20026;-65
2021/07/28 11:53:31;;;;;;;5.60;3.88;;;26.30;53.50;;;;;;3559490;40;20115;-66
2021/07/28 11:56:08;;;;;;;6.70;4.05;;;26.30;53.90;;;;;;3560502;40;20021;-65
2021/07/28 11:58:44;;;;;;;5.85;4.00;;;26.30;54.30;;;;;;3560848;40;20025;-67
2021/07/28 12:01:30;;;;;;;6.22;4.07;;;26.40;54.10;;;;;;3560310;40;20423;-66
2021/07/28 12:04:15;;;;;;;2.58;2.38;;;26.40;53.90;;;;;;3560352;40;20033;-66
2021/07/28 12:06:43;;;;;;;6.27;2.90;;;26.40;52.60;;;;;;3566026;40;20038;-74
2021/07/28 12:09:15;;;;;;;4.03;3.10;;;26.50;52.90;;;;;;3560673;40;20037;-66
2021/07/28 12:12:02;;;;;;;4.70;3.20;;;26.50;52.90;;;;;;3560762;40;20111;-65
2021/07/28 12:14:42;;;;;;;4.55;2.65;;;26.50;52.90;;;;;;3560200;40;20041;-65
2021/07/28 12:17:16;;;;;;;7.18;3.13;;;26.40;52.80;;;;;;3560791;40;20029;-66
2021/07/28 12:19:59;;;;;;;4.90;2.92;;;26.50;52.50;;;;;;3560684;40;20040;-68
2021/07/28 12:22:38;;;;;;;5.00;2.78;;;26.40;52.50;;;;;;3561713;40;20057;-66
2021/07/28 12:25:24;;;;;;;6.78;2.92;;;26.40;52.30;;;;;;3559564;40;20030;-66
2021/07/28 12:27:55;;;;;;;5.65;2.75;;;26.40;52.60;;;;;;3560556;40;20033;-66
2021/07/28 12:30:22;;;;;;;4.30;3.25;;;26.40;52.50;;;;;;3561150;40;20041;-66
2021/07/28 12:32:59;;;;;;;6.95;3.10;;;26.40;52.80;;;;;;3560373;40;20452;-66
2021/07/28 12:35:40;;;;;;;2.95;2.60;;;26.50;52.60;;;;;;3560994;40;20038;-66
2021/07/28 12:38:10;;;;;;;6.82;4.20;;;26.50;52.40;;;;;;3560889;40;20037;-67
2021/07/28 12:40:37;;;;;;;4.97;3.30;;;26.50;52.00;;;;;;3541334;40;20116;-65
2021/07/28 12:43:06;;;;;;;4.57;3.72;;;26.50;51.90;;;;;;3545608;40;20046;-65
2021/07/28 12:45:34;;;;;;;3.97;3.10;;;26.40;51.90;;;;;;3541703;40;20031;-65
2021/07/28 12:48:00;;;;;;;13.57;3.10;;;26.40;52.50;;;;;;3541966;40;20033;-66
2021/07/28 12:50:26;;;;;;;10.10;3.38;;;26.40;52.10;;;;;;3540753;40;20034;-65